Time;durP1;ratioP1;P1;durP2;ratioP2;P2;SDS_P1;SDS_P2;PMS_P1;PMS_P2;Temp;Humidity;BMP_temperature;BMP_pressure;BME280_temperature;BME280_humidity;BME280_pressure;Samples;Min_cycle;Max_cycle;Signal;HPM_P1;HPM_P2
2021/10/08 00:01:17;;;;;;;26.33;12.85;;;;;;;5.15;70.17;102366.97;1692599;82;26006;-80
2021/10/08 00:03:44;;;;;;;29.00;13.68;;;;;;;5.12;70.07;102363.66;1721582;82;26705;-80
2021/10/08 00:06:11;;;;;;;28.20;13.78;;;;;;;5.10;70.21;102370.42;1748245;80;26120;-80
2021/10/08 00:08:40;;;;;;;28.50;13.03;;;;;;;5.09;70.31;102362.06;1725615;82;28286;-80
2021/10/08 00:11:08;;;;;;;33.08;14.83;;;;;;;5.07;70.38;102359.17;1692953;82;25858;-79
2021/10/08 00:13:35;;;;;;;25.82;13.80;;;;;;;5.07;70.40;102367.14;1725761;82;25806;-80
2021/10/08 00:16:05;;;;;;;27.65;13.78;;;;;;;5.05;70.50;102373.87;1750642;80;25795;-80
2021/10/08 00:18:34;;;;;;;27.87;12.55;;;;;;;5.03;70.61;102379.77;1724413;80;25815;-79
2021/10/08 00:21:01;;;;;;;29.40;12.98;;;;;;;4.98;70.62;102375.28;1691517;80;28218;-80
2021/10/08 00:23:28;;;;;;;23.75;13.45;;;;;;;4.91;70.63;102371.34;1702561;80;25862;-80
2021/10/08 00:25:55;;;;;;;34.50;13.78;;;;;;;4.88;70.86;102373.34;1744206;80;25836;-80
2021/10/08 00:28:22;;;;;;;28.05;15.08;;;;;;;4.84;70.84;102373.19;1719342;80;25873;-80
2021/10/08 00:30:50;;;;;;;28.83;13.10;;;;;;;4.82;71.00;102374.63;1726094;82;25816;-80
2021/10/08 00:33:17;;;;;;;26.87;12.80;;;;;;;4.83;71.00;102379.00;1716338;82;27550;-80
2021/10/08 00:35:44;;;;;;;35.03;14.65;;;;;;;4.82;71.09;102375.11;1746982;80;25650;-80
2021/10/08 00:38:11;;;;;;;26.30;12.60;;;;;;;4.76;71.12;102375.06;1724301;80;25783;-80
2021/10/08 00:40:43;;;;;;;29.07;13.68;;;;;;;4.72;71.26;102376.70;1696407;80;26412;-79
2021/10/08 00:43:10;;;;;;;25.75;13.03;;;;;;;4.67;71.37;102377.88;1725570;80;25887;-80
2021/10/08 00:45:38;;;;;;;27.85;14.83;;;;;;;4.67;71.28;102388.97;1751381;80;27475;-80
2021/10/08 00:48:08;;;;;;;26.75;14.25;;;;;;;4.67;71.46;102392.95;1723465;82;25872;-79
2021/10/08 00:50:38;;;;;;;33.30;15.40;;;;;;;4.67;71.47;102392.95;1708818;80;25794;-80
2021/10/08 00:53:07;;;;;;;26.82;13.90;;;;;;;4.67;71.53;102388.97;1691906;80;34827;-80
2021/10/08 00:55:36;;;;;;;27.02;14.00;;;;;;;4.64;71.46;102386.54;1743504;80;25980;-79
2021/10/08 00:58:04;;;;;;;30.02;14.85;;;;;;;4.59;71.50;102389.51;1723690;82;27994;-80
2021/10/08 01:00:31;;;;;;;25.68;13.50;;;;;;;4.57;71.56;102388.77;1692937;80;25942;-79
2021/10/08 01:02:58;;;;;;;26.68;12.95;;;;;;;4.54;71.60;102392.94;1729906;82;25778;-79
2021/10/08 01:05:25;;;;;;;35.75;13.98;;;;;;;4.52;71.60;102392.66;1748104;80;26599;-80
2021/10/08 01:07:52;;;;;;;31.30;14.87;;;;;;;4.48;71.65;102397.81;1729382;80;25309;-80
2021/10/08 01:10:20;;;;;;;29.45;13.78;;;;;;;4.46;71.80;102397.92;1714834;80;27728;-80
2021/10/08 01:12:47;;;;;;;30.35;12.85;;;;;;;4.42;71.76;102402.21;1749156;80;25778;-80
2021/10/08 01:15:14;;;;;;;32.80;13.53;;;;;;;4.34;71.79;102404.53;1705499;82;25877;-80
2021/10/08 01:17:43;;;;;;;32.38;13.45;;;;;;;4.29;72.00;102396.88;1750525;80;25881;-79
2021/10/08 01:20:12;;;;;;;29.32;14.23;;;;;;;4.26;72.04;102392.23;1753060;80;25795;-80
2021/10/08 01:22:41;;;;;;;33.28;14.05;;;;;;;4.24;72.10;102402.96;1735614;80;27558;-79
2021/10/08 01:25:09;;;;;;;23.62;13.03;;;;;;;4.19;72.12;102402.91;1698634;80;25436;-80
2021/10/08 01:27:37;;;;;;;25.82;13.28;;;;;;;4.13;72.23;102406.80;1752201;80;25849;-79
2021/10/08 01:30:07;;;;;;;28.32;13.55;;;;;;;4.11;72.38;102407.84;1757571;80;26553;-80
2021/10/08 01:32:37;;;;;;;32.25;13.48;;;;;;;4.08;72.56;102405.41;1718682;80;26005;-79
2021/10/08 01:35:06;;;;;;;35.40;13.38;;;;;;;4.01;72.51;102407.61;1660644;82;27599;-81
2021/10/08 01:37:35;;;;;;;26.40;13.53;;;;;;;4.00;72.59;102402.42;1742805;80;25933;-80
2021/10/08 01:40:04;;;;;;;27.15;13.83;;;;;;;3.98;72.71;102403.00;1722518;80;26501;-79
2021/10/08 01:42:33;;;;;;;26.42;13.98;;;;;;;3.97;72.78;102401.28;1675501;80;26006;-80
2021/10/08 01:45:03;;;;;;;25.48;12.65;;;;;;;3.95;72.75;102396.56;1699511;80;25815;-80
2021/10/08 01:47:30;;;;;;;28.47;13.30;;;;;;;3.95;72.82;102401.39;1750385;80;28176;-79
2021/10/08 01:49:57;;;;;;;24.98;13.50;;;;;;;3.90;72.84;102397.71;1712584;80;25872;-80
2021/10/08 01:52:24;;;;;;;29.50;13.05;;;;;;;3.85;72.98;102410.41;1689195;80;25893;-79
2021/10/08 01:54:51;;;;;;;26.75;12.73;;;;;;;3.83;73.02;102416.28;1710409;80;26558;-79
2021/10/08 01:57:19;;;;;;;23.25;13.45;;;;;;;3.79;72.99;102408.16;1755047;80;25756;-79
2021/10/08 01:59:47;;;;;;;25.82;13.35;;;;;;;3.76;73.14;102419.45;1745904;80;27575;-80
2021/10/08 02:02:14;;;;;;;25.77;12.10;;;;;;;3.72;73.06;102413.47;1713980;80;25797;-79
2021/10/08 02:04:41;;;;;;;30.30;13.53;;;;;;;3.70;73.26;102415.87;1712660;80;25938;-80
2021/10/08 02:07:10;;;;;;;28.85;12.98;;;;;;;3.69;73.32;102418.98;1745396;80;25834;-80
2021/10/08 02:09:38;;;;;;;23.70;12.55;;;;;;;3.65;73.38;102417.48;1742520;80;25745;-80
2021/10/08 02:12:05;;;;;;;31.75;14.10;;;;;;;3.62;73.41;102420.78;1712258;80;27458;-80
2021/10/08 02:14:33;;;;;;;22.98;13.08;;;;;;;3.61;73.50;102422.61;1687238;80;26126;-80
2021/10/08 02:17:00;;;;;;;24.98;12.70;;;;;;;3.60;73.50;102419.56;1724214;80;25756;-80
2021/10/08 02:19:27;;;;;;;31.60;12.65;;;;;;;3.56;73.52;102426.02;1745728;80;25867;-79
2021/10/08 02:21:57;;;;;;;31.55;12.82;;;;;;;3.56;73.62;102429.13;1715155;80;25363;-79
2021/10/08 02:24:24;;;;;;;25.65;12.35;;;;;;;3.51;73.72;102428.09;1670578;82;27539;-79
2021/10/08 02:26:51;;;;;;;28.25;13.60;;;;;;;3.50;73.70;102437.00;1721272;80;26034;-79
2021/10/08 02:29:25;;;;;;;28.00;14.15;;;;;;;3.46;73.69;102432.84;1725070;80;25931;-79
2021/10/08 02:31:53;;;;;;;22.42;12.03;;;;;;;3.44;73.79;102438.72;1698428;80;26460;-80
2021/10/08 02:34:21;;;;;;;27.65;13.32;;;;;;;3.44;73.81;102440.04;1670272;80;25927;-79
2021/10/08 02:36:48;;;;;;;33.67;13.78;;;;;;;3.40;73.89;102435.86;1746283;80;27586;-80
2021/10/08 02:39:15;;;;;;;24.02;11.80;;;;;;;3.37;73.90;102442.69;1724081;80;26473;-80
2021/10/08 02:41:42;;;;;;;22.80;12.82;;;;;;;3.33;73.94;102443.83;1719600;80;26244;-80
2021/10/08 02:44:10;;;;;;;24.00;13.15;;;;;;;3.32;74.05;102446.55;1668937;82;26407;-81
2021/10/08 02:46:39;;;;;;;23.38;12.15;;;;;;;3.29;74.02;102444.11;1742843;80;25747;-80
2021/10/08 02:49:06;;;;;;;27.07;12.40;;;;;;;3.29;74.11;102448.08;1713352;81;27476;-80
2021/10/08 02:51:33;;;;;;;22.22;12.15;;;;;;;3.31;74.24;102448.84;1724490;80;26115;-80
2021/10/08 02:54:02;;;;;;;28.50;11.93;;;;;;;3.28;74.17;102447.69;1691135;82;25752;-79
2021/10/08 02:56:29;;;;;;;22.77;11.53;;;;;;;3.27;74.26;102448.19;1745633;80;25939;-79
2021/10/08 02:58:57;;;;;;;27.67;12.75;;;;;;;3.27;74.30;102447.33;1743196;80;25723;-80
2021/10/08 03:01:24;;;;;;;26.80;12.28;;;;;;;3.26;74.29;102452.23;1699570;80;27408;-80
2021/10/08 03:03:51;;;;;;;23.98;11.83;;;;;;;3.28;74.35;102454.31;1715692;80;26326;-79
2021/10/08 03:06:18;;;;;;;23.27;11.90;;;;;;;3.26;74.28;102457.06;1753785;80;25893;-79
2021/10/08 03:08:45;;;;;;;25.43;11.70;;;;;;;3.19;74.27;102455.73;1725404;80;26629;-79
2021/10/08 03:11:13;;;;;;;26.52;11.50;;;;;;;3.16;74.36;102460.37;1720736;80;26525;-80
2021/10/08 03:13:41;;;;;;;24.98;13.62;;;;;;;3.14;74.43;102473.72;1694041;80;27474;-79
2021/10/08 03:16:08;;;;;;;22.75;11.65;;;;;;;3.09;74.53;102467.84;1751353;80;26408;-79
2021/10/08 03:18:35;;;;;;;26.77;12.68;;;;;;;3.08;74.46;102467.44;1747171;80;26548;-80
2021/10/08 03:21:05;;;;;;;25.20;12.30;;;;;;;3.08;74.62;102470.09;1760708;80;25927;-80
2021/10/08 03:23:32;;;;;;;24.43;12.28;;;;;;;3.04;74.56;102473.41;1673988;80;25985;-80
2021/10/08 03:25:59;;;;;;;20.85;11.73;;;;;;;3.02;74.65;102471.79;1746278;80;27593;-80
2021/10/08 03:28:26;;;;;;;32.98;11.88;;;;;;;3.03;74.74;102473.52;1747545;80;26058;-80
2021/10/08 03:30:54;;;;;;;22.25;11.20;;;;;;;3.03;74.70;102471.72;1721291;80;25788;-79
2021/10/08 03:33:20;;;;;;;21.65;10.53;;;;;;;3.03;74.71;102480.13;1719657;82;26590;-79
2021/10/08 03:35:48;;;;;;;23.20;11.60;;;;;;;2.98;74.68;102479.55;1716691;82;25804;-79
2021/10/08 03:38:17;;;;;;;19.15;11.18;;;;;;;2.92;74.68;102485.21;1750168;80;28274;-80
2021/10/08 03:41:20;;;;;;;24.37;11.60;;;;;;;2.88;74.78;102487.20;1748844;80;26276;-80
2021/10/08 03:43:21;;;;;;;19.67;10.90;;;;;;;2.85;74.97;102480.75;1674618;82;25953;-79
2021/10/08 03:45:49;;;;;;;22.70;11.38;;;;;;;2.80;75.03;102483.30;1721057;82;25846;-79
2021/10/08 03:48:38;;;;;;;23.80;12.47;;;;;;;2.81;75.13;102487.64;1736740;80;25945;-80
2021/10/08 03:51:03;;;;;;;24.35;11.22;;;;;;;2.80;75.23;102488.59;1694504;80;27493;-80
2021/10/08 03:53:31;;;;;;;28.07;12.28;;;;;;;2.79;75.27;102489.06;1691953;82;25953;-79
2021/10/08 03:55:58;;;;;;;23.32;11.75;;;;;;;2.81;75.26;102481.02;1722482;80;26646;-80
2021/10/08 03:58:25;;;;;;;23.60;10.80;;;;;;;2.77;75.19;102475.07;1745396;80;25845;-79
2021/10/08 04:00:52;;;;;;;24.07;11.18;;;;;;;2.76;75.27;102475.17;1721452;82;26260;-80
2021/10/08 04:03:21;;;;;;;20.70;10.72;;;;;;;2.77;75.16;102479.05;1715840;82;27016;-79
2021/10/08 04:05:48;;;;;;;26.55;12.10;;;;;;;2.80;75.23;102479.34;1753777;80;25727;-79
2021/10/08 04:08:15;;;;;;;25.10;12.03;;;;;;;2.79;75.15;102487.73;1713263;80;25835;-79
2021/10/08 04:10:44;;;;;;;20.82;10.48;;;;;;;2.76;75.04;102484.44;1736619;80;25897;-79
2021/10/08 04:13:11;;;;;;;28.32;13.10;;;;;;;2.73;75.06;102488.11;1715943;80;25952;-81
2021/10/08 04:15:38;;;;;;;24.60;12.40;;;;;;;2.68;75.08;102489.30;1747153;80;27731;-79
2021/10/08 04:18:06;;;;;;;23.35;12.78;;;;;;;2.65;75.12;102498.27;1759537;80;25828;-81
2021/10/08 04:20:33;;;;;;;20.92;12.05;;;;;;;2.64;75.12;102495.72;1721881;80;25399;-79
2021/10/08 04:23:00;;;;;;;24.05;11.00;;;;;;;2.59;75.22;102492.02;1668293;82;25831;-79
2021/10/08 04:25:28;;;;;;;23.80;11.05;;;;;;;2.56;75.27;102494.00;1763893;80;25938;-79
2021/10/08 04:27:56;;;;;;;24.23;11.03;;;;;;;2.54;75.31;102502.50;1745129;80;27459;-79
2021/10/08 04:30:24;;;;;;;26.70;12.45;;;;;;;2.50;75.33;102505.80;1721009;80;25728;-79
2021/10/08 04:32:51;;;;;;;22.55;12.33;;;;;;;2.52;75.44;102507.02;1671698;82;25997;-80
2021/10/08 04:35:18;;;;;;;25.70;11.40;;;;;;;2.54;75.34;102506.00;1716002;82;25865;-79
2021/10/08 04:37:45;;;;;;;20.45;11.57;;;;;;;2.52;75.40;102503.91;1691090;81;25784;-80
2021/10/08 04:40:13;;;;;;;20.52;11.55;;;;;;;2.50;75.42;102503.62;1774275;79;27561;-80
2021/10/08 04:42:41;;;;;;;26.73;10.60;;;;;;;2.48;75.36;102506.82;1672546;82;25816;-80
2021/10/08 04:45:10;;;;;;;22.95;12.00;;;;;;;2.49;75.41;102513.80;1716291;82;26557;-79
2021/10/08 04:47:37;;;;;;;28.60;11.60;;;;;;;2.49;75.42;102510.69;1741147;80;25799;-79
2021/10/08 04:50:06;;;;;;;27.52;11.25;;;;;;;2.46;75.32;102512.67;1709833;80;25779;-80
2021/10/08 04:52:35;;;;;;;24.02;11.75;;;;;;;2.45;75.37;102513.14;1729813;80;28255;-79
2021/10/08 04:55:02;;;;;;;19.07;10.93;;;;;;;2.45;75.37;102509.17;1720845;82;25835;-79
2021/10/08 04:57:29;;;;;;;20.40;11.80;;;;;;;2.47;75.37;102518.33;1749747;80;25786;-79
2021/10/08 04:59:56;;;;;;;24.35;13.08;;;;;;;2.45;75.28;102506.52;1726197;82;26646;-79
2021/10/08 05:02:23;;;;;;;23.12;13.15;;;;;;;2.44;75.29;102511.41;1719497;80;25981;-80
2021/10/08 05:04:51;;;;;;;26.40;12.03;;;;;;;2.45;75.30;102515.78;1739047;80;28229;-82
2021/10/08 05:07:18;;;;;;;19.80;12.03;;;;;;;2.44;75.23;102521.99;1741653;80;25903;-80
2021/10/08 05:09:45;;;;;;;17.90;10.80;;;;;;;2.44;75.22;102524.64;1710198;80;25710;-79
2021/10/08 05:12:13;;;;;;;28.65;12.40;;;;;;;2.45;75.29;102524.17;1734196;80;26532;-80
2021/10/08 05:14:40;;;;;;;20.77;10.30;;;;;;;2.46;75.28;102532.52;1719590;82;25832;-79
2021/10/08 05:17:08;;;;;;;27.07;11.43;;;;;;;2.44;75.25;102521.99;1749216;80;27452;-80
2021/10/08 05:19:35;;;;;;;24.00;11.65;;;;;;;2.46;75.25;102530.69;1715691;80;25923;-78
2021/10/08 05:22:04;;;;;;;23.75;11.28;;;;;;;2.46;75.21;102529.86;1759518;80;25309;-78
2021/10/08 05:24:31;;;;;;;19.85;11.05;;;;;;;2.46;75.22;102533.34;1691924;80;25849;-79
2021/10/08 05:26:59;;;;;;;24.47;11.78;;;;;;;2.48;75.37;102535.92;1745172;80;25752;-79
2021/10/08 05:29:26;;;;;;;26.20;12.13;;;;;;;2.50;75.33;102533.57;1695210;82;28293;-79
2021/10/08 05:31:54;;;;;;;25.50;11.12;;;;;;;2.50;75.28;102534.03;1741346;80;25810;-79
2021/10/08 05:34:21;;;;;;;26.60;12.60;;;;;;;2.49;75.29;102543.75;1718404;80;25896;-79
2021/10/08 05:36:49;;;;;;;29.60;11.88;;;;;;;2.51;75.40;102537.05;1717143;80;25913;-80
2021/10/08 05:39:19;;;;;;;23.15;11.35;;;;;;;2.52;75.48;102547.56;1705848;82;25774;-81
2021/10/08 05:41:46;;;;;;;21.95;11.70;;;;;;;2.51;75.53;102551.13;1673398;82;27582;-80
2021/10/08 05:44:13;;;;;;;21.00;11.68;;;;;;;2.52;75.51;102554.17;1687787;80;25991;-79
2021/10/08 05:46:41;;;;;;;25.10;10.70;;;;;;;2.50;75.55;102563.98;1749749;80;25783;-79
2021/10/08 05:49:08;;;;;;;27.48;10.28;;;;;;;2.47;75.70;102563.29;1694908;80;26444;-78
2021/10/08 05:51:35;;;;;;;18.90;11.28;;;;;;;2.45;75.86;102562.06;1726667;80;25356;-79
2021/10/08 05:54:02;;;;;;;27.02;12.30;;;;;;;2.44;76.00;102562.16;1700754;80;27624;-79
2021/10/08 05:56:29;;;;;;;23.12;11.95;;;;;;;2.45;76.16;102564.71;1749866;80;25930;-80
2021/10/08 05:58:57;;;;;;;16.73;10.13;;;;;;;2.48;76.39;102565.02;1725674;80;25330;-79
2021/10/08 06:01:24;;;;;;;18.30;10.10;;;;;;;2.51;76.40;102572.29;1696195;80;26002;-80
2021/10/08 06:03:51;;;;;;;20.72;11.40;;;;;;;2.52;76.47;102577.98;1679989;82;26583;-81
2021/10/08 06:06:20;;;;;;;19.00;10.28;;;;;;;2.53;76.47;102585.42;1749958;80;28740;-80
2021/10/08 06:08:47;;;;;;;17.32;9.75;;;;;;;2.54;76.59;102580.06;1715675;80;44380;-79
2021/10/08 06:11:16;;;;;;;21.35;9.35;;;;;;;2.59;76.82;102581.95;1711003;80;25800;-80
2021/10/08 06:13:45;;;;;;;15.88;10.03;;;;;;;2.64;76.65;102584.34;1698382;80;26006;-80
2021/10/08 06:16:12;;;;;;;18.60;10.40;;;;;;;2.69;76.73;102583.63;1716628;80;26558;-79
2021/10/08 06:18:40;;;;;;;16.55;9.08;;;;;;;2.76;76.81;102586.31;1746463;80;27538;-81
2021/10/08 06:21:07;;;;;;;21.23;10.98;;;;;;;2.81;76.84;102593.03;1730457;81;25881;-79
2021/10/08 06:23:35;;;;;;;19.45;9.05;;;;;;;2.85;76.82;102595.87;1726642;80;25977;-80
2021/10/08 06:26:02;;;;;;;16.30;10.00;;;;;;;2.93;76.89;102596.28;1761293;80;25864;-80
2021/10/08 06:28:29;;;;;;;18.25;10.20;;;;;;;2.98;76.86;102594.22;1747435;80;26695;-79
2021/10/08 06:30:57;;;;;;;17.80;10.30;;;;;;;3.05;77.00;102597.37;1691915;82;27359;-80
2021/10/08 06:33:24;;;;;;;21.45;10.65;;;;;;;3.11;77.08;102595.68;1656799;83;25912;-80
2021/10/08 06:35:51;;;;;;;16.20;9.35;;;;;;;3.18;76.97;102600.14;1712218;82;26218;-79
2021/10/08 06:38:20;;;;;;;25.95;11.08;;;;;;;3.28;76.95;102607.91;1719689;82;26523;-80
2021/10/08 06:40:47;;;;;;;22.55;9.83;;;;;;;3.35;76.85;102610.13;1752172;80;25826;-80
2021/10/08 06:43:15;;;;;;;30.00;10.58;;;;;;;3.43;76.79;102610.52;1736639;80;27688;-79
2021/10/08 06:45:44;;;;;;;17.10;9.30;;;;;;;3.50;76.84;102612.32;1750010;80;26414;-80
2021/10/08 06:48:13;;;;;;;20.48;9.40;;;;;;;3.58;76.53;102618.00;1750694;80;25792;-80
2021/10/08 06:50:42;;;;;;;20.55;10.28;;;;;;;3.65;76.49;102621.53;1696679;80;26672;-79
2021/10/08 06:53:09;;;;;;;17.12;9.50;;;;;;;3.74;76.62;102629.39;1700906;80;26044;-80
2021/10/08 06:55:37;;;;;;;22.32;10.70;;;;;;;3.84;76.64;102630.53;1722211;80;28192;-79
2021/10/08 06:58:05;;;;;;;21.60;10.40;;;;;;;3.95;76.73;102633.84;1716726;80;26250;-81
2021/10/08 07:00:32;;;;;;;21.20;9.93;;;;;;;4.04;76.47;102637.26;1711509;80;25838;-80
2021/10/08 07:02:59;;;;;;;27.17;9.83;;;;;;;4.13;76.60;102632.72;1696910;82;26261;-80
2021/10/08 07:05:28;;;;;;;15.32;8.53;;;;;;;4.23;76.40;102629.39;1731303;80;25738;-80
2021/10/08 07:07:56;;;;;;;17.27;9.75;;;;;;;4.33;76.14;102638.45;1759125;80;27439;-79
2021/10/08 07:10:24;;;;;;;18.15;9.60;;;;;;;4.44;76.37;102642.61;1687888;82;26161;-79
2021/10/08 07:12:52;;;;;;;21.33;11.33;;;;;;;4.56;76.33;102643.61;1738896;80;25768;-79
2021/10/08 07:15:19;;;;;;;27.05;10.43;;;;;;;4.68;76.11;102641.02;1738807;81;26591;-80
2021/10/08 07:17:49;;;;;;;22.65;10.43;;;;;;;4.78;76.16;102637.30;1746103;80;25775;-80
2021/10/08 07:20:20;;;;;;;16.40;8.83;;;;;;;4.90;75.88;102645.78;1723016;80;27482;-79
2021/10/08 07:22:48;;;;;;;;;;;;;;;5.01;75.78;102646.41;1722106;80;25877;-80
2021/10/08 07:25:15;;;;;;;20.10;9.43;;;;;;;5.13;75.80;102642.95;1755437;80;25755;-81
2021/10/08 07:27:45;;;;;;;18.98;9.25;;;;;;;5.22;75.09;102648.96;1731592;82;26451;-80
2021/10/08 07:30:14;;;;;;;20.70;9.73;;;;;;;5.32;74.88;102650.08;1745980;80;25857;-80
2021/10/08 07:32:42;;;;;;;16.73;8.98;;;;;;;5.44;74.94;102649.23;1711700;82;28326;-80
2021/10/08 07:35:10;;;;;;;24.35;9.58;;;;;;;5.55;75.25;102655.15;1751105;80;25874;-81
2021/10/08 07:37:37;;;;;;;22.48;9.78;;;;;;;5.65;74.41;102661.53;1707524;80;25352;-80
2021/10/08 07:40:08;;;;;;;16.80;8.83;;;;;;;5.75;73.96;102657.30;1702784;80;26635;-80
2021/10/08 07:42:36;;;;;;;18.65;8.30;;;;;;;5.86;73.88;102654.80;1694367;80;25892;-79
2021/10/08 07:45:06;;;;;;;29.67;9.18;;;;;;;5.97;73.35;102654.41;1751560;80;27591;-81
2021/10/08 07:47:33;;;;;;;20.97;9.50;;;;;;;6.09;73.60;102656.70;1727582;80;25879;-79
2021/10/08 07:50:00;;;;;;;15.45;9.03;;;;;;;6.20;73.22;102659.45;1701339;80;26535;-80
2021/10/08 07:52:27;;;;;;;23.60;9.60;;;;;;;6.30;72.72;102657.83;1731545;81;25998;-78
2021/10/08 07:54:54;;;;;;;17.37;9.30;;;;;;;6.41;73.15;102662.39;1759260;80;25815;-79
2021/10/08 07:57:21;;;;;;;19.55;9.03;;;;;;;6.55;72.75;102656.91;1732734;80;27354;-79
2021/10/08 07:59:48;;;;;;;19.57;9.08;;;;;;;6.69;73.12;102663.44;1674428;80;25911;-79
2021/10/08 08:02:15;;;;;;;16.25;7.97;;;;;;;6.83;72.66;102663.27;1696735;80;25851;-80
2021/10/08 08:04:42;;;;;;;19.37;9.23;;;;;;;6.95;72.23;102665.88;1740694;80;26453;-79
2021/10/08 08:07:09;;;;;;;20.15;8.45;;;;;;;7.07;71.65;102661.94;1761632;80;25688;-79
2021/10/08 08:09:36;;;;;;;20.30;9.55;;;;;;;7.18;71.73;102666.85;1743302;80;28173;-80
2021/10/08 08:12:04;;;;;;;20.82;8.80;;;;;;;7.33;71.30;102672.84;1699317;80;26344;-79
2021/10/08 08:14:31;;;;;;;18.75;8.48;;;;;;;7.43;70.91;102672.51;1665137;83;25868;-79
2021/10/08 08:16:58;;;;;;;14.05;8.18;;;;;;;7.52;70.85;102672.67;1740873;80;26502;-79
2021/10/08 08:19:25;;;;;;;18.95;9.08;;;;;;;7.64;70.74;102669.06;1761948;80;26476;-80
2021/10/08 08:21:52;;;;;;;18.98;8.88;;;;;;;7.76;70.68;102672.62;1673181;80;27566;-79
2021/10/08 08:24:19;;;;;;;20.85;8.95;;;;;;;7.88;70.66;102666.80;1670180;80;25883;-80
2021/10/08 08:26:46;;;;;;;21.35;9.35;;;;;;;7.94;69.71;102664.50;1748185;80;25825;-80
2021/10/08 08:29:13;;;;;;;28.90;10.72;;;;;;;8.01;69.08;102664.88;1750751;80;25856;-80
2021/10/08 08:31:41;;;;;;;24.02;9.55;;;;;;;8.09;68.87;102663.31;1696672;80;25274;-80
2021/10/08 08:34:09;;;;;;;17.95;8.25;;;;;;;8.16;68.93;102672.54;1705758;82;28087;-80
2021/10/08 08:36:37;;;;;;;18.67;8.40;;;;;;;8.25;68.27;102669.19;1751082;80;25815;-79
2021/10/08 08:39:08;;;;;;;19.92;7.78;;;;;;;8.36;68.31;102667.82;1748830;80;26615;-79
2021/10/08 08:41:33;;;;;;;23.70;8.88;;;;;;;8.47;68.25;102662.48;1706169;80;25815;-80
2021/10/08 08:44:03;;;;;;;17.52;8.30;;;;;;;8.61;67.86;102666.72;1697732;80;26535;-80
2021/10/08 08:46:30;;;;;;;24.20;8.45;;;;;;;8.74;67.28;102671.91;1738452;80;27452;-80
2021/10/08 08:48:59;;;;;;;24.00;8.48;;;;;;;8.87;67.39;102666.80;1742081;80;25579;-80
2021/10/08 08:51:27;;;;;;;23.30;8.63;;;;;;;9.00;66.28;102666.63;1704457;80;25896;-79
2021/10/08 08:53:57;;;;;;;18.27;8.18;;;;;;;9.12;65.66;102666.47;1679664;82;25654;-80
2021/10/08 08:56:25;;;;;;;19.90;8.10;;;;;;;9.22;65.86;102667.88;1750765;80;26038;-80
2021/10/08 08:59:02;;;;;;;19.65;8.25;;;;;;;9.32;66.00;102668.31;1759871;80;27488;-80
2021/10/08 09:01:30;;;;;;;24.57;10.55;;;;;;;9.44;65.75;102672.27;1757052;80;25889;-80
2021/10/08 09:04:04;;;;;;;31.12;10.55;;;;;;;9.54;65.15;102671.88;1698354;80;25323;-79
2021/10/08 09:06:36;;;;;;;20.82;8.90;;;;;;;9.65;64.03;102669.12;1747343;80;26651;-80
2021/10/08 09:09:19;;;;;;;23.38;7.45;;;;;;;9.76;64.15;102665.05;1742022;80;25760;-80
2021/10/08 09:11:49;;;;;;;15.60;8.00;;;;;;;9.86;64.04;102663.27;1729614;81;28130;-80
2021/10/08 09:14:23;;;;;;;17.17;7.22;;;;;;;9.96;64.66;102661.03;1705331;81;25804;-80
2021/10/08 09:17:19;;;;;;;16.57;6.80;;;;;;;10.06;63.26;102657.91;1740717;80;26176;-80
2021/10/08 09:20:03;;;;;;;17.90;6.83;;;;;;;10.14;62.15;102654.58;1689249;84;26866;-79
2021/10/08 09:22:49;;;;;;;18.62;6.97;;;;;;;10.24;62.09;102659.51;1670103;83;25823;-81
2021/10/08 09:25:24;;;;;;;20.95;7.55;;;;;;;10.34;62.71;102660.38;1741019;80;27382;-80
2021/10/08 09:28:01;;;;;;;25.25;9.45;;;;;;;10.44;63.03;102659.06;1756352;79;25866;-80
2021/10/08 09:30:40;;;;;;;18.67;8.03;;;;;;;10.54;62.62;102659.96;1733571;82;25846;-82
2021/10/08 09:33:10;;;;;;;22.22;8.03;;;;;;;10.64;62.17;102656.81;1758367;80;26642;-82
2021/10/08 09:35:39;;;;;;;17.62;7.15;;;;;;;10.72;61.83;102656.48;1677955;82;25367;-82
2021/10/08 09:38:11;;;;;;;20.10;9.13;;;;;;;10.82;61.02;102658.67;1747938;80;27452;-81
2021/10/08 09:40:47;;;;;;;26.10;8.60;;;;;;;10.94;60.14;102655.88;1752460;80;25303;-81
2021/10/08 09:43:26;;;;;;;20.62;8.15;;;;;;;11.03;58.60;102657.25;1730285;80;25887;-81
2021/10/08 09:46:05;;;;;;;23.35;8.90;;;;;;;11.15;58.46;102653.91;1700651;80;26518;-82
2021/10/08 09:48:44;;;;;;;23.02;8.33;;;;;;;11.25;57.76;102651.59;1755437;80;26014;-81
2021/10/08 09:51:16;;;;;;;21.50;8.85;;;;;;;11.34;56.19;102647.20;1750936;80;28191;-81
2021/10/08 09:53:55;;;;;;;20.60;8.38;;;;;;;11.41;55.29;102651.02;1705951;80;25948;-81
2021/10/08 09:56:39;;;;;;;17.85;8.50;;;;;;;11.48;55.41;102648.13;1708238;82;25820;-80
2021/10/08 09:59:13;;;;;;;24.60;9.73;;;;;;;11.57;53.60;102652.12;1745993;80;25875;-81
2021/10/08 10:01:43;;;;;;;19.82;10.38;;;;;;;11.63;54.00;102645.36;1723379;80;25925;-81
2021/10/08 10:04:11;;;;;;;20.52;9.80;;;;;;;11.70;51.80;102647.01;1690418;81;27467;-82
2021/10/08 10:06:42;;;;;;;19.15;9.48;;;;;;;11.73;52.39;102643.52;1709758;80;25381;-81
2021/10/08 10:09:09;;;;;;;18.37;9.53;;;;;;;11.80;51.20;102641.11;1745757;80;25811;-82
2021/10/08 10:11:37;;;;;;;25.75;8.78;;;;;;;11.87;50.93;102641.71;1742005;80;26343;-81
2021/10/08 10:14:04;;;;;;;25.00;9.60;;;;;;;11.92;51.98;102648.84;1701109;82;25835;-80
2021/10/08 10:16:36;;;;;;;26.02;10.23;;;;;;;11.98;49.69;102643.37;1672224;80;27840;-81
2021/10/08 10:19:04;;;;;;;21.30;9.63;;;;;;;12.06;51.50;102649.71;1734159;80;26595;-82
2021/10/08 10:21:36;;;;;;;22.25;9.30;;;;;;;12.13;50.26;102645.94;1746072;80;25793;-81
2021/10/08 10:24:04;;;;;;;19.50;10.20;;;;;;;12.17;50.36;102648.67;1738026;80;25884;-82
2021/10/08 10:26:33;;;;;;;20.82;10.03;;;;;;;12.23;48.66;102643.56;1718591;82;25660;-80
2021/10/08 10:29:02;;;;;;;24.75;9.58;;;;;;;12.25;48.84;102650.98;1737804;80;27485;-82
2021/10/08 10:31:31;;;;;;;19.50;10.00;;;;;;;12.31;49.76;102653.59;1758767;80;25906;-81
2021/10/08 10:34:01;;;;;;;21.20;10.58;;;;;;;12.34;49.54;102647.41;1712536;82;25823;-81
2021/10/08 10:36:31;;;;;;;21.87;11.60;;;;;;;12.39;49.03;102645.13;1695968;82;26522;-80
2021/10/08 10:39:18;;;;;;;21.70;11.40;;;;;;;12.43;48.90;102639.44;1751544;80;25849;-80
2021/10/08 10:42:02;;;;;;;24.87;10.48;;;;;;;12.46;48.95;102642.70;1738483;80;27466;-81
2021/10/08 10:44:35;;;;;;;20.68;11.70;;;;;;;12.52;49.35;102640.75;1699998;82;26500;-81
2021/10/08 10:47:24;;;;;;;24.60;11.75;;;;;;;12.57;49.13;102635.78;1717921;82;25340;-80
2021/10/08 10:50:27;;;;;;;30.92;11.65;;;;;;;12.61;48.61;102640.34;1746711;80;26569;-81
2021/10/08 10:53:00;;;;;;;32.15;13.18;;;;;;;12.61;47.32;102633.63;1749998;80;26454;-81
2021/10/08 10:55:33;;;;;;;25.95;12.00;;;;;;;12.61;47.49;102630.45;1694222;80;27419;-82
2021/10/08 10:58:07;;;;;;;27.93;10.78;;;;;;;12.64;47.36;102632.81;1692455;80;25999;-81
2021/10/08 11:00:47;;;;;;;17.80;10.25;;;;;;;12.69;45.89;102631.88;1748846;80;25843;-82
2021/10/08 11:03:22;;;;;;;21.07;10.35;;;;;;;12.75;45.69;102621.85;1750011;80;25906;-81
2021/10/08 11:06:11;;;;;;;25.82;10.43;;;;;;;12.80;45.10;102628.98;1681536;82;25801;-81
2021/10/08 11:09:17;;;;;;;23.83;10.35;;;;;;;12.83;46.01;102635.38;1686602;80;27411;-80
2021/10/08 11:11:40;;;;;;;22.32;9.65;;;;;;;12.88;46.59;102633.09;1722186;80;25636;-81
2021/10/08 11:14:20;;;;;;;17.23;8.85;;;;;;;12.92;46.02;102633.62;1751490;80;26452;-81
2021/10/08 11:16:48;;;;;;;22.23;9.20;;;;;;;12.97;45.44;102630.84;1735642;80;26644;-80
2021/10/08 11:19:41;;;;;;;20.62;8.28;;;;;;;13.03;45.59;102626.67;1678967;80;26057;-80
2021/10/08 11:22:08;;;;;;;22.37;9.38;;;;;;;13.06;46.71;102627.27;1748678;80;28453;-80
2021/10/08 11:24:36;;;;;;;15.70;8.95;;;;;;;13.13;46.26;102626.97;1748479;80;26480;-81
2021/10/08 11:27:05;;;;;;;18.60;8.85;;;;;;;13.20;45.00;102623.66;1708072;82;25871;-81
2021/10/08 11:29:36;;;;;;;20.80;9.53;;;;;;;13.26;45.30;102628.45;1703777;80;26176;-81